^^
Grace C. Lehan Memorial Weather Station Historical Data
Daily Summary for April 18, 2021 Units:  Metric    English   Both
Daily Weekly Monthly Yearly
  High: Low: Average:
Temperature: 28.7 °C 20.5 °C 24.3 °C
Dew Point: 23.3 °C 18.4 °C 20.8 °C
Humidity: 91% 71% 81%
Wind Speed: 0.6km/h 0km/h 0km/h
Wind Gust: 9.7km/h - -
Wind- - SW
Pressure: 1022.9 hPa 1018.8 hPa -
Precipitation: 0 mm    
 
 
Tabular Data for April 18, 2021
Time Temperature Dew Point Pressure Wind Wind Speed Wind Gust Humidity Rainfall Rate (Hourly) solar
00:04 21.9 °C 18.7 °C 1021.6 hPa Calm     81.8% 0 mm 0 W/m2
00:09 21.9 °C 18.7 °C 1021.6 hPa Calm     82% 0 mm 0 W/m2
00:14 21.9 °C 18.7 °C 1021.6 hPa Calm     82% 0 mm 0 W/m2
00:19 21.8 °C 18.6 °C 1021.6 hPa Calm     82% 0 mm 0 W/m2
00:24 21.8 °C 18.8 °C 1021.6 hPa Calm     82.9% 0 mm 0 W/m2
00:29 21.8 °C 18.6 °C 1021.6 hPa Calm     82.1% 0 mm 0 W/m2
00:34 21.8 °C 18.6 °C 1021.6 hPa Calm     82.2% 0 mm 0 W/m2
00:39 21.8 °C 18.7 °C 1021.6 hPa Calm     83% 0 mm 0 W/m2
00:44 21.7 °C 18.7 °C 1021.6 hPa Calm     83% 0 mm 0 W/m2
00:49 21.7 °C 18.7 °C 1021.6 hPa Calm     83% 0 mm 0 W/m2
00:54 21.7 °C 18.7 °C 1021.6 hPa Calm     83% 0 mm 0 W/m2
00:59 21.6 °C 18.6 °C 1021.9 hPa Calm     83% 0 mm 0 W/m2
01:04 21.6 °C 18.6 °C 1021.9 hPa Calm     83% 0 mm 0 W/m2
01:09 21.6 °C 18.7 °C 1021.9 hPa Calm     83.9% 0 mm 0 W/m2
01:14 21.5 °C 18.7 °C 1021.9 hPa Calm     84% 0 mm 0 W/m2
01:19 21.4 °C 18.6 °C 1021.9 hPa Calm     84% 0 mm 0 W/m2
01:24 21.4 °C 18.6 °C 1021.9 hPa Calm     84% 0 mm 0 W/m2
01:29 21.3 °C 18.6 °C 1021.9 hPa Calm     84% 0 mm 0 W/m2
01:34 21.3 °C 18.5 °C 1021.9 hPa Calm     84% 0 mm 0 W/m2
01:39 21.3 °C 18.4 °C 1021.9 hPa Calm     84% 0 mm 0 W/m2
01:44 21.3 °C 18.5 °C 1021.9 hPa Calm     84.2% 0 mm 0 W/m2
01:49 21.3 °C 18.6 °C 1021.9 hPa Calm     84.8% 0 mm 0 W/m2
01:54 21.2 °C 18.6 °C 1021.9 hPa Calm     85% 0 mm 0 W/m2
01:59 21.2 °C 18.6 °C 1021.9 hPa Calm     85% 0 mm 0 W/m2
02:04 21.2 °C 18.6 °C 1021.9 hPa Calm     85% 0 mm 0 W/m2
02:09 21.2 °C 18.6 °C 1021.9 hPa Calm     85% 0 mm 0 W/m2
02:14 21.2 °C 18.6 °C 1021.9 hPa Calm     85% 0 mm 0 W/m2
02:19 21.2 °C 18.6 °C 1021.9 hPa Calm     85.5% 0 mm 0 W/m2
02:24 21.2 °C 18.7 °C 1021.9 hPa Calm     85.8% 0 mm 0 W/m2
02:29 21.2 °C 18.7 °C 1021.9 hPa Calm     86% 0 mm 0 W/m2
02:34 21.2 °C 18.7 °C 1021.9 hPa Calm     86% 0 mm 0 W/m2
02:39 21.2 °C 18.7 °C 1021.9 hPa Calm     86% 0 mm 0 W/m2
02:44 21.2 °C 18.7 °C 1021.9 hPa Calm     86% 0 mm 0 W/m2
02:49 21.2 °C 18.7 °C 1021.9 hPa Calm     86% 0 mm 0 W/m2
02:54 21.2 °C 18.7 °C 1021.9 hPa Calm     86% 0 mm 0 W/m2
02:59 21.2 °C 18.7 °C 1021.6 hPa Calm     86% 0 mm 0 W/m2
03:04 21.2 °C 18.7 °C 1021.6 hPa Calm     86% 0 mm 0 W/m2
03:09 21.2 °C 18.7 °C 1021.9 hPa Calm     86% 0 mm 0 W/m2
03:14 21.2 °C 18.7 °C 1021.9 hPa Calm     86% 0 mm 0 W/m2
03:19 21.2 °C 18.7 °C 1021.9 hPa Calm     86% 0 mm 0 W/m2
03:24 21.1 °C 18.7 °C 1021.9 hPa Calm     86% 0 mm 0 W/m2
03:29 21.1 °C 18.7 °C 1021.9 hPa Calm     86% 0 mm 0 W/m2
03:34 21.1 °C 18.6 °C 1021.9 hPa Calm     86% 0 mm 0 W/m2
03:39 21.1 °C 18.6 °C 1021.9 hPa Calm     86% 0 mm 0 W/m2
03:44 21 °C 18.6 °C 1021.9 hPa Calm     86% 0 mm 0 W/m2
03:49 21 °C 18.6 °C 1021.9 hPa Calm     86% 0 mm 0 W/m2
03:54 21 °C 18.6 °C 1021.9 hPa Calm     86.4% 0 mm 0 W/m2
03:59 20.9 °C 18.7 °C 1021.9 hPa Calm     87% 0 mm 0 W/m2
04:04 21 °C 18.8 °C 1021.9 hPa Calm     87% 0 mm 0 W/m2
04:09 21 °C 18.8 °C 1021.9 hPa Calm     87.5% 0 mm 0 W/m2
04:14 21 °C 18.8 °C 1021.9 hPa Calm     87% 0 mm 0 W/m2
04:19 21.1 °C 18.8 °C 1021.9 hPa Calm     87% 0 mm 0 W/m2
04:24 21.1 °C 18.8 °C 1021.9 hPa Calm     87% 0 mm 0 W/m2
04:29 21.1 °C 18.8 °C 1021.9 hPa Calm     87% 0 mm 0 W/m2
04:34 21.1 °C 18.8 °C 1021.9 hPa Calm     87% 0 mm 0 W/m2
04:39 21.1 °C 18.8 °C 1021.9 hPa Calm     87% 0 mm 0 W/m2
04:44 21.1 °C 18.8 °C 1021.9 hPa Calm     87% 0 mm 0 W/m2
04:49 21.1 °C 18.8 °C 1021.9 hPa Calm     87.1% 0 mm 0 W/m2
04:54 21 °C 18.9 °C 1021.9 hPa Calm     88% 0 mm 0 W/m2
04:59 20.9 °C 18.9 °C 1021.9 hPa Calm     88% 0 mm 0 W/m2
05:04 20.9 °C 18.9 °C 1021.9 hPa Calm     88% 0 mm 0 W/m2
05:09 20.9 °C 18.8 °C 1021.9 hPa Calm     88% 0 mm 0 W/m2
05:14 20.9 °C 18.8 °C 1021.9 hPa Calm     88% 0 mm 0 W/m2
05:19 20.8 °C 18.8 °C 1021.9 hPa Calm     88% 0 mm 0 W/m2
05:24 20.8 °C 18.7 °C 1022.2 hPa Calm     88% 0 mm 0 W/m2
05:29 20.8 °C 18.7 °C 1022.2 hPa Calm     88% 0 mm 0 W/m2
05:34 20.7 °C 18.7 °C 1022.2 hPa Calm     88% 0 mm 0 W/m2
05:39 20.7 °C 18.6 °C 1022.2 hPa Calm     88% 0 mm 0 W/m2
05:44 20.7 °C 18.6 °C 1022.2 hPa Calm     88% 0 mm 0 W/m2
05:49 20.6 °C 18.7 °C 1022.2 hPa Calm     89% 0 mm 0 W/m2
05:54 20.6 °C 18.7 °C 1022.2 hPa Calm     89% 0 mm 0 W/m2
05:59 20.6 °C 18.7 °C 1022.2 hPa Calm     89% 0 mm 0 W/m2
06:04 20.5 °C 18.7 °C 1022.2 hPa Calm     89.5% 0 mm 0 W/m2
06:09 20.5 °C 18.8 °C 1022.2 hPa Calm     90% 0 mm 0 W/m2
06:14 20.5 °C 18.8 °C 1022.2 hPa Calm     90% 0 mm 7 W/m2
06:19 20.5 °C 18.8 °C 1022.2 hPa Calm     90% 0 mm 9 W/m2
06:24 20.6 °C 18.8 °C 1022.2 hPa Calm     90% 0 mm 12 W/m2
06:29 20.6 °C 18.8 °C 1022.2 hPa Calm     90% 0 mm 18 W/m2
06:34 20.6 °C 18.9 °C 1022.6 hPa Calm     90% 0 mm 25 W/m2
06:39 20.7 °C 19.1 °C 1022.6 hPa Calm     90.9% 0 mm 33 W/m2
06:44 20.7 °C 19.2 °C 1022.6 hPa Calm     91% 0 mm 42 W/m2
06:49 20.8 °C 19.2 °C 1022.6 hPa Calm     90.7% 0 mm 62 W/m2
06:54 20.8 °C 19.2 °C 1022.6 hPa Calm     90.1% 0 mm 62 W/m2
06:59 20.9 °C 19.4 °C 1022.6 hPa Calm     91% 0 mm 81 W/m2
07:04 21.1 °C 19.6 °C 1022.6 hPa Calm     91% 0 mm 202 W/m2
07:09 21.3 °C 19.8 °C 1022.6 hPa Calm     91% 0 mm 202 W/m2
07:14 21.7 °C 20.1 °C 1022.9 hPa Calm     90.5% 0 mm 186 W/m2
07:19 22 °C 20.2 °C 1022.9 hPa Calm     89.3% 0 mm 169 W/m2
07:24 22.3 °C 20.3 °C 1022.9 hPa Calm     88.2% 0 mm 148 W/m2
07:29 22.6 °C 20.4 °C 1022.6 hPa Calm     87% 0 mm 181 W/m2
07:34 22.9 °C 20.6 °C 1022.6 hPa Calm     86.5% 0 mm 239 W/m2
07:39 23.3 °C 20.6 °C 1022.6 hPa Calm     85.1% 0 mm 250 W/m2
07:44 23.6 °C 20.9 °C 1022.9 hPa Calm     84.6% 0 mm 250 W/m2
07:49 23.9 °C 20.9 °C 1022.9 hPa Calm     83.1% 0 mm 183 W/m2
07:54 24.1 °C 20.9 °C 1022.9 hPa Calm     82.3% 0 mm 239 W/m2
07:59 24.3 °C 21 °C 1022.9 hPa Calm   4.8 km/h 82% 0 mm 283 W/m2
08:09 24.7 °C 21.2 °C 1022.9 hPa Calm     80.9% 0 mm 360 W/m2
08:14 25.1 °C 21.2 °C 1022.9 hPa Calm     79.4% 0 mm 390 W/m2
08:19 25.3 °C 21.4 °C 1022.9 hPa Calm     79% 0 mm 390 W/m2
08:24 25.6 °C 21.4 °C 1022.9 hPa Calm     78% 0 mm 512 W/m2
08:29 25.9 °C 21.8 °C 1022.6 hPa Calm     78.2% 0 mm 469 W/m2
08:34 26.2 °C 21.7 °C 1022.6 hPa Calm     76.5% 0 mm 309 W/m2
08:39 26.4 °C 21.8 °C 1022.6 hPa Calm     75.7% 0 mm 512 W/m2
08:44 26.5 °C 21.8 °C 1022.6 hPa Calm     75.6% 0 mm 478 W/m2
08:49 26.6 °C 21.8 °C 1022.6 hPa Calm     75.1% 0 mm 417 W/m2
08:54 26.7 °C 21.8 °C 1022.6 hPa Calm     75% 0 mm 432 W/m2
08:59 26.8 °C 21.9 °C 1022.6 hPa Calm     74.8% 0 mm 394 W/m2
09:04 26.8 °C 21.8 °C 1022.6 hPa Calm   1.6 km/h 74.2% 0 mm 445 W/m2
09:09 26.9 °C 22.1 °C 1022.6 hPa Calm   1.6 km/h 74.7% 0 mm 526 W/m2
09:14 27.2 °C 22.2 °C 1022.6 hPa SW 0.2 km/h 1.6 km/h 74.4% 0 mm 311 W/m2
09:19 27.2 °C 22.1 °C 1022.6 hPa Calm   1.6 km/h 73.6% 0 mm 302 W/m2
09:24 27.1 °C 22.1 °C 1022.2 hPa Calm   1.6 km/h 74.3% 0 mm 237 W/m2
09:29 26.9 °C 22.2 °C 1022.2 hPa Calm   1.6 km/h 75% 0 mm 216 W/m2
09:34 26.9 °C 22.1 °C 1022.2 hPa Calm   1.6 km/h 75% 0 mm 246 W/m2
09:39 26.8 °C 22.2 °C 1022.2 hPa Calm   1.6 km/h 75.7% 0 mm 216 W/m2
09:44 26.8 °C 22.3 °C 1022.6 hPa Calm   1.6 km/h 76.7% 0 mm 262 W/m2
09:49 26.8 °C 22.5 °C 1022.6 hPa Calm   1.6 km/h 77% 0 mm 229 W/m2
09:54 26.9 °C 22.6 °C 1022.6 hPa Calm   1.6 km/h 76.7% 0 mm 244 W/m2
09:59 27.1 °C 22.7 °C 1022.6 hPa SW 0.3 km/h 4.8 km/h 76.7% 0 mm 267 W/m2
10:04 27.2 °C 22.4 °C 1022.6 hPa SW 0.2 km/h 4.8 km/h 75% 0 mm 234 W/m2
10:09 27.2 °C 22.4 °C 1022.2 hPa Calm   4.8 km/h 75.1% 0 mm 269 W/m2
10:14 27.2 °C 22.5 °C 1022.2 hPa SW 0.6 km/h 6.4 km/h 75.5% 0 mm 214 W/m2
10:19 27.2 °C 22.6 °C 1022.2 hPa Calm   6.4 km/h 75.6% 0 mm 183 W/m2
10:24 27.3 °C 22.7 °C 1022.2 hPa Calm   6.4 km/h 76% 0 mm 185 W/m2
10:29 27.3 °C 22.6 °C 1022.2 hPa Calm   6.4 km/h 75.4% 0 mm 195 W/m2
10:34 27.3 °C 22.6 °C 1022.2 hPa Calm   6.4 km/h 75.2% 0 mm 246 W/m2
10:39 27.4 °C 22.8 °C 1022.2 hPa Calm   1.6 km/h 76.2% 0 mm 271 W/m2
10:44 27.4 °C 22.8 °C 1022.2 hPa Calm   1.6 km/h 75.9% 0 mm 401 W/m2
10:49 27.5 °C 22.7 °C 1022.2 hPa SW 0.2 km/h 3.2 km/h 75.3% 0 mm 401 W/m2
10:54 27.6 °C 22.7 °C 1022.2 hPa Calm   3.2 km/h 74.5% 0 mm 253 W/m2
10:59 27.7 °C 22.8 °C 1021.9 hPa Calm   3.2 km/h 74.7% 0 mm 234 W/m2
11:04 27.8 °C 22.9 °C 1021.9 hPa Calm   3.2 km/h 75% 0 mm 320 W/m2
11:09 27.8 °C 22.7 °C 1021.9 hPa Calm   1.6 km/h 73.9% 0 mm 255 W/m2
11:14 27.8 °C 22.6 °C 1021.9 hPa Calm   1.6 km/h 73% 0 mm 236 W/m2
11:19 27.8 °C 22.6 °C 1021.9 hPa Calm   1.6 km/h 73.5% 0 mm 621 W/m2
11:24 27.8 °C 22.6 °C 1021.9 hPa Calm   1.6 km/h 73.4% 0 mm 538 W/m2
11:29 28 °C 22.9 °C 1021.9 hPa WSW 0.5 km/h 4.8 km/h 74.1% 0 mm 691 W/m2
11:34 28.3 °C 22.9 °C 1021.9 hPa SSE 0.5 km/h 4.8 km/h 72.7% 0 mm 459 W/m2
11:39 28.4 °C 22.6 °C 1021.9 hPa Calm   4.8 km/h 71% 0 mm 158 W/m2
11:44 28.3 °C 22.7 °C 1021.9 hPa Calm   4.8 km/h 71.8% 0 mm 155 W/m2
11:49 28.2 °C 22.9 °C 1021.6 hPa Calm   4.8 km/h 72.8% 0 mm 171 W/m2
11:54 28.1 °C 22.7 °C 1021.6 hPa Calm   4.8 km/h 72.5% 0 mm 251 W/m2
11:59 28.1 °C 22.8 °C 1021.6 hPa Calm   4.8 km/h 73% 0 mm 251 W/m2
12:09 28.2 °C 22.9 °C 1021.6 hPa Calm   1.6 km/h 73.3% 0 mm 269 W/m2
12:14 28.2 °C 23.1 °C 1021.6 hPa Calm   3.2 km/h 73.7% 0 mm 346 W/m2
12:19 28.3 °C 22.9 °C 1021.6 hPa SE 0.2 km/h 3.2 km/h 72.5% 0 mm 510 W/m2
12:24 28.4 °C 23.3 °C 1021.6 hPa West 0.3 km/h 6.4 km/h 73.8% 0 mm 471 W/m2
12:29 28.6 °C 23.1 °C 1021.6 hPa Calm   6.4 km/h 72.4% 0 mm 325 W/m2
12:34 28.7 °C 23.1 °C 1021.6 hPa Calm   6.4 km/h 71.8% 0 mm 253 W/m2
12:39 28.6 °C 22.9 °C 1021.6 hPa Calm     71.6% 0 mm 202 W/m2
12:44 28.5 °C 22.9 °C 1021.6 hPa Calm     72% 0 mm 195 W/m2
12:49 28.4 °C 22.8 °C 1021.6 hPa Calm     71.9% 0 mm 197 W/m2
12:54 28.3 °C 23 °C 1021.6 hPa Calm   1.6 km/h 73% 0 mm 209 W/m2
13:00 28.1 °C 22.8 °C 1021.6 hPa Calm   3.2 km/h 73% 0 mm 198 W/m2
14:00 28.4 °C 23.1 °C 1021.2 hPa Calm   3.2 km/h 73% 0 mm 284 W/m2
14:30 28.3 °C 23.1 °C 1020.9 hPa Calm   6.4 km/h 73% 0 mm 257 W/m2
15:00 28.6 °C 23.2 °C 1020.5 hPa Calm   4.8 km/h 73% 0 mm 211 W/m2
15:30 28.2 °C 23.1 °C 1020.5 hPa Calm   9.7 km/h 74% 0 mm 144 W/m2
16:09 28.1 °C 23 °C 1020.2 hPa WSW 0.2 km/h 1.6 km/h 73.6% 0 mm 156 W/m2
16:14 28.1 °C 23 °C 1020.2 hPa Calm   1.6 km/h 74% 0 mm 148 W/m2
16:19 28.1 °C 23 °C 1019.9 hPa Calm   1.6 km/h 74.1% 0 mm 162 W/m2
16:24 28 °C 22.8 °C 1020.2 hPa WSW 0.3 km/h 3.2 km/h 73.5% 0 mm 121 W/m2
16:29 27.9 °C 22.8 °C 1020.2 hPa Calm   3.2 km/h 73.7% 0 mm 107 W/m2
16:34 27.9 °C 22.9 °C 1020.2 hPa Calm   3.2 km/h 74.3% 0 mm 95 W/m2
16:39 27.9 °C 23.1 °C 1020.2 hPa Calm   1.6 km/h 74.9% 0 mm 84 W/m2
16:44 27.9 °C 23.1 °C 1020.2 hPa Calm   1.6 km/h 75% 0 mm 67 W/m2
16:49 27.8 °C 22.9 °C 1020.2 hPa Calm   1.6 km/h 75% 0 mm 84 W/m2
16:54 27.7 °C 22.9 °C 1020.2 hPa Calm   1.6 km/h 75.2% 0 mm 91 W/m2
16:59 27.6 °C 23 °C 1020.2 hPa Calm   1.6 km/h 75.8% 0 mm 100 W/m2
17:04 27.6 °C 22.9 °C 1020.2 hPa Calm   1.6 km/h 75.8% 0 mm 102 W/m2
17:09 27.6 °C 22.9 °C 1020.2 hPa Calm   1.6 km/h 75.8% 0 mm 91 W/m2
17:14 27.4 °C 22.8 °C 1020.2 hPa Calm   1.6 km/h 76% 0 mm 84 W/m2
17:19 27.3 °C 22.9 °C 1020.2 hPa Calm   1.6 km/h 76.6% 0 mm 98 W/m2
17:24 27.3 °C 22.9 °C 1020.2 hPa Calm   1.6 km/h 77% 0 mm 109 W/m2
17:29 27.3 °C 22.9 °C 1019.9 hPa Calm   1.6 km/h 77.2% 0 mm 127 W/m2
17:34 27.3 °C 23 °C 1020.2 hPa Calm   1.6 km/h 77.4% 0 mm 153 W/m2
17:39 27.3 °C 22.9 °C 1019.9 hPa WSW 0.2 km/h 3.2 km/h 77% 0 mm 153 W/m2
17:44 27.4 °C 22.9 °C 1019.9 hPa Calm   3.2 km/h 76.5% 0 mm 97 W/m2
17:49 27.4 °C 22.8 °C 1019.9 hPa Calm   3.2 km/h 76% 0 mm 74 W/m2
17:54 27.3 °C 22.7 °C 1020.2 hPa Calm   3.2 km/h 76% 0 mm 74 W/m2
17:59 27.2 °C 22.6 °C 1020.2 hPa SW 0.2 km/h 3.2 km/h 76% 0 mm 83 W/m2
18:04 27.1 °C 22.7 °C 1020.2 hPa SW 0.2 km/h 3.2 km/h 76.9% 0 mm 86 W/m2
18:09 27 °C 22.6 °C 1019.9 hPa SW 0.2 km/h 4.8 km/h 76.8% 0 mm 95 W/m2
18:14 26.9 °C 22.6 °C 1019.9 hPa Calm   4.8 km/h 77% 0 mm 88 W/m2
18:19 26.9 °C 22.5 °C 1019.9 hPa Calm   4.8 km/h 77% 0 mm 72 W/m2
18:24 26.9 °C 22.7 °C 1019.9 hPa Calm   4.8 km/h 78% 0 mm 69 W/m2
18:29 26.9 °C 22.6 °C 1019.5 hPa SW 0.5 km/h 8 km/h 77.4% 0 mm 69 W/m2
18:34 26.8 °C 22.5 °C 1019.5 hPa SW 0.5 km/h 8 km/h 77% 0 mm 54 W/m2
18:39 26.8 °C 22.4 °C 1019.5 hPa SSW 0.2 km/h 4.8 km/h 77% 0 mm 51 W/m2
18:44 26.7 °C 22.3 °C 1019.5 hPa Calm   4.8 km/h 77% 0 mm 53 W/m2
19:00 26.5 °C 22.3 °C 1019.5 hPa Calm   4.8 km/h 78% 0 mm 42 W/m2
19:30 26 °C 22.1 °C 1019.9 hPa Calm   4.8 km/h 79% 0 mm 10 W/m2
20:09 25.3 °C 21.9 °C 1019.9 hPa Calm   4.8 km/h 81.9% 0 mm 10 W/m2
20:14 25.2 °C 21.9 °C 1019.5 hPa Calm   1.6 km/h 82% 0 mm 0 W/m2
20:19 25.1 °C 21.8 °C 1019.5 hPa Calm   1.6 km/h 82% 0 mm 0 W/m2
20:24 25.1 °C 21.9 °C 1019.5 hPa Calm   1.6 km/h 82.9% 0 mm 0 W/m2
20:29 25 °C 21.9 °C 1019.5 hPa Calm   1.6 km/h 83% 0 mm 0 W/m2
20:34 24.9 °C 21.8 °C 1019.5 hPa Calm   1.6 km/h 83% 0 mm 0 W/m2
20:39 24.9 °C 21.9 °C 1019.5 hPa Calm     83.6% 0 mm 0 W/m2
20:44 24.8 °C 21.9 °C 1019.5 hPa Calm     84% 0 mm 0 W/m2
20:49 24.8 °C 21.7 °C 1019.5 hPa Calm     83.1% 0 mm 0 W/m2
20:54 24.7 °C 21.7 °C 1019.9 hPa Calm     83.1% 0 mm 0 W/m2
20:59 24.7 °C 21.6 °C 1019.9 hPa Calm     83% 0 mm 0 W/m2
21:04 24.7 °C 21.6 °C 1019.9 hPa Calm     83% 0 mm 0 W/m2
21:09 24.6 °C 21.4 °C 1019.9 hPa Calm     82.3% 0 mm 0 W/m2
21:14 24.6 °C 21.2 °C 1019.9 hPa Calm     81.6% 0 mm 0 W/m2
21:19 24.5 °C 20.9 °C 1019.9 hPa South 0.2 km/h 1.6 km/h 80.6% 0 mm 0 W/m2
21:24 24.4 °C 20.8 °C 1019.9 hPa Calm   1.6 km/h 80% 0 mm 0 W/m2
21:29 24.4 °C 20.7 °C 1020.2 hPa Calm   1.6 km/h 80% 0 mm 0 W/m2
21:34 24.4 °C 20.7 °C 1020.2 hPa Calm   1.6 km/h 80% 0 mm 0 W/m2
21:39 24.4 °C 20.7 °C 1020.2 hPa Calm     80% 0 mm 0 W/m2
21:44 24.3 °C 20.4 °C 1019.9 hPa Calm     79% 0 mm 0 W/m2
21:49 24.3 °C 20.4 °C 1019.9 hPa Calm     79% 0 mm 0 W/m2
21:54 24.3 °C 20.4 °C 1019.9 hPa Calm     79% 0 mm 0 W/m2
21:59 24.3 °C 20.4 °C 1019.5 hPa Calm     79% 0 mm 0 W/m2
22:04 24.2 °C 20.3 °C 1019.5 hPa Calm     79% 0 mm 0 W/m2
22:09 24.2 °C 20.3 °C 1019.5 hPa Calm     79% 0 mm 0 W/m2
22:14 24.2 °C 20.3 °C 1019.5 hPa Calm     79% 0 mm 0 W/m2
22:19 24.2 °C 20.3 °C 1019.2 hPa Calm     79% 0 mm 0 W/m2
22:24 24.1 °C 20.3 °C 1019.2 hPa Calm     79.3% 0 mm 0 W/m2
22:29 24.1 °C 20.4 °C 1019.2 hPa Calm     80% 0 mm 0 W/m2
22:34 24.1 °C 20.4 °C 1019.2 hPa Calm     80% 0 mm 0 W/m2
22:39 24.1 °C 20.4 °C 1019.2 hPa Calm     80% 0 mm 0 W/m2
22:44 24.1 °C 20.4 °C 1019.2 hPa South 0.2 km/h 3.2 km/h 80% 0 mm 0 W/m2
22:49 24 °C 20.3 °C 1019.2 hPa Calm   3.2 km/h 80% 0 mm 0 W/m2
22:54 23.9 °C 20.4 °C 1019.2 hPa Calm   3.2 km/h 80.5% 0 mm 0 W/m2
22:59 23.9 °C 20.4 °C 1019.2 hPa Calm   3.2 km/h 81% 0 mm 0 W/m2
23:04 23.9 °C 20.4 °C 1019.2 hPa Calm   3.2 km/h 81% 0 mm 0 W/m2
23:09 23.9 °C 20.4 °C 1019.2 hPa Calm     81% 0 mm 0 W/m2
23:14 23.8 °C 20.4 °C 1019.2 hPa Calm     81.2% 0 mm 0 W/m2
23:19 23.8 °C 20.6 °C 1019.2 hPa Calm     82% 0 mm 0 W/m2
23:24 23.8 °C 20.6 °C 1019.2 hPa Calm     82% 0 mm 0 W/m2
23:29 23.8 °C 20.6 °C 1019.2 hPa Calm     82% 0 mm 0 W/m2
23:34 23.8 °C 20.6 °C 1018.8 hPa Calm     82% 0 mm 0 W/m2
23:39 23.8 °C 20.6 °C 1018.8 hPa Calm     82% 0 mm 0 W/m2
23:44 23.8 °C 20.7 °C 1018.8 hPa Calm     82.7% 0 mm 0 W/m2
23:49 23.8 °C 20.7 °C 1018.8 hPa Calm     83% 0 mm 0 W/m2
23:54 23.7 °C 20.7 °C 1018.8 hPa Calm     83% 0 mm 0 W/m2
23:59 23.7 °C 20.7 °C 1018.8 hPa Calm     83% 0 mm 0 W/m2
Hartford County Weather
Compliments of Weather Underground - 2 mb